This is the latest recevied weather packets stored in our database for station/object AA1QD. If no packets are shown the sender has not sent any weather packets the latest 10 day(s).
| Time | Temp. | Humidity | Pressure | Rain* | Wind** | Luminosity | Snow |
|---|---|---|---|---|---|---|---|
| 1777758597 | 7.78° C | 77% | 1006.8 hPa | 0.25 mm | - | - | - |
| 1777754998 | 8.33° C | 75% | 1007.1 hPa | 0.76 mm | - | - | - |
| 1777751396 | 8.33° C | 77% | 1007.1 hPa | 0.76 mm | - | - | - |
| 1777747797 | 8.33° C | 78% | 1007.8 hPa | 1.78 mm | - | - | - |
| 1777744197 | 8.89° C | 81% | 1007.7 hPa | 0 mm | - | - | - |
| 1777740597 | 9.44° C | 81% | 1007.8 hPa | 0 mm | - | - | - |
| 1777736996 | 7.78° C | 83% | 1008.4 hPa | 0 mm | - | - | - |
| 1777733397 | 7.78° C | 83% | 1008.6 hPa | 0 mm | - | - | - |
| 1777729802 | 6.67° C | 82% | 1009.1 hPa | 0 mm | - | - | - |
| 1777726196 | 6.11° C | 80% | 1009.2 hPa | 0.25 mm | - | - | - |
| 1777588571 | 8.89° C | 76% | 1002.4 hPa | 0 mm | - | - | - |
| 1777584973 | 9.44° C | 77% | 1002.2 hPa | 0 mm | - | - | - |
| 1777581371 | 8.89° C | 75% | 1002.1 hPa | 0.76 mm | - | - | - |
| 1777577774 | 8.89° C | 75% | 1002.6 hPa | 0.51 mm | - | - | - |
| 1777574172 | 9.44° C | 74% | 1002.8 hPa | 1.78 mm | - | - | - |
| 1777570571 | 8.89° C | 74% | 1003.5 hPa | 1.52 mm | - | - | - |
| 1777566973 | 8.33° C | 74% | 1003.6 hPa | 0.76 mm | - | - | - |
| 1777563371 | 7.78° C | 74% | 1004 hPa | 0.51 mm | - | - | - |
| 1777548254 | 5.56° C | 74% | 1005.4 hPa | 0.25 mm | - | - | - |
| 1777415187 | 11.11° C | 24% | 1017.4 hPa | 0 mm | - | - | - |
| 1777411591 | 13.89° C | 33% | 1017.3 hPa | 0 mm | - | - | - |
| 1777407986 | 15.56° C | 41% | 1017.5 hPa | 0 mm | - | - | - |
| 1777321013 | 18.89° C | 38% | 1019.8 hPa | 0 mm | - | - | - |
| 1777317415 | 18.89° C | 38% | 1020.2 hPa | 0 mm | - | - | - |
| 1777313814 | 18.89° C | 38% | 1020.6 hPa | 0 mm | - | - | - |
* Rain latest hour (hover to see other rain measurements)
** Current wind speed in m/s (hover to see current wind gust speed)